sensor_id;sensor_type;location;lat;lon;timestamp;temperature;humidity
31379;DHT22;61664;48.112;11.662;2023-03-01T00:01:39;5.10;78.50
31379;DHT22;61664;48.112;11.662;2023-03-01T00:04:06;5.10;78.50
31379;DHT22;61664;48.112;11.662;2023-03-01T00:06:33;5.10;78.50
31379;DHT22;61664;48.112;11.662;2023-03-01T00:09:00;5.10;78.50
31379;DHT22;61664;48.112;11.662;2023-03-01T00:11:29;5.10;78.50
31379;DHT22;61664;48.112;11.662;2023-03-01T00:14:00;5.10;78.40
31379;DHT22;61664;48.112;11.662;2023-03-01T00:16:34;5.00;78.40
31379;DHT22;61664;48.112;11.662;2023-03-01T00:19:08;5.10;77.80
31379;DHT22;61664;48.112;11.662;2023-03-01T00:21:39;5.10;78.50
31379;DHT22;61664;48.112;11.662;2023-03-01T00:24:06;5.10;78.60
31379;DHT22;61664;48.112;11.662;2023-03-01T00:26:34;5.10;78.50
31379;DHT22;61664;48.112;11.662;2023-03-01T00:29:01;5.10;78.30
31379;DHT22;61664;48.112;11.662;2023-03-01T00:31:31;5.10;78.50
31379;DHT22;61664;48.112;11.662;2023-03-01T00:34:02;5.10;78.20
31379;DHT22;61664;48.112;11.662;2023-03-01T00:36:32;5.10;78.10
31379;DHT22;61664;48.112;11.662;2023-03-01T00:39:03;5.10;78.40
31379;DHT22;61664;48.112;11.662;2023-03-01T00:41:31;5.10;78.40
31379;DHT22;61664;48.112;11.662;2023-03-01T00:44:00;5.10;78.50
31379;DHT22;61664;48.112;11.662;2023-03-01T00:46:27;5.10;78.50
31379;DHT22;61664;48.112;11.662;2023-03-01T00:48:57;5.10;78.50
31379;DHT22;61664;48.112;11.662;2023-03-01T00:51:26;5.10;78.50
31379;DHT22;61664;48.112;11.662;2023-03-01T00:53:56;5.10;78.40
31379;DHT22;61664;48.112;11.662;2023-03-01T00:56:24;5.10;78.40
31379;DHT22;61664;48.112;11.662;2023-03-01T00:58:51;5.10;78.40
31379;DHT22;61664;48.112;11.662;2023-03-01T01:01:21;5.10;78.50
31379;DHT22;61664;48.112;11.662;2023-03-01T01:04:06;5.10;78.10
31379;DHT22;61664;48.112;11.662;2023-03-01T01:06:40;5.10;78.20
31379;DHT22;61664;48.112;11.662;2023-03-01T01:09:10;5.10;78.20
31379;DHT22;61664;48.112;11.662;2023-03-01T01:11:47;5.10;78.30
31379;DHT22;61664;48.112;11.662;2023-03-01T01:14:17;5.10;77.70
31379;DHT22;61664;48.112;11.662;2023-03-01T01:16:45;5.00;78.30
31379;DHT22;61664;48.112;11.662;2023-03-01T01:19:12;5.10;78.40
31379;DHT22;61664;48.112;11.662;2023-03-01T01:21:40;5.00;78.40
31379;DHT22;61664;48.112;11.662;2023-03-01T01:24:10;5.00;78.30
31379;DHT22;61664;48.112;11.662;2023-03-01T01:26:37;5.00;78.30
31379;DHT22;61664;48.112;11.662;2023-03-01T01:29:05;5.10;78.30
31379;DHT22;61664;48.112;11.662;2023-03-01T01:31:33;5.00;78.20
31379;DHT22;61664;48.112;11.662;2023-03-01T01:34:03;5.10;78.40
31379;DHT22;61664;48.112;11.662;2023-03-01T01:36:32;5.00;78.30
31379;DHT22;61664;48.112;11.662;2023-03-01T01:38:59;5.00;78.30
31379;DHT22;61664;48.112;11.662;2023-03-01T01:41:28;5.10;78.40
31379;DHT22;61664;48.112;11.662;2023-03-01T01:44:25;5.10;78.30
31379;DHT22;61664;48.112;11.662;2023-03-01T01:46:57;5.00;74.80
31379;DHT22;61664;48.112;11.662;2023-03-01T01:52:14;5.00;77.70
31379;DHT22;61664;48.112;11.662;2023-03-01T01:54:49;5.00;75.90
31379;DHT22;61664;48.112;11.662;2023-03-01T01:57:23;5.00;78.40
31379;DHT22;61664;48.112;11.662;2023-03-01T01:59:58;5.00;78.10
31379;DHT22;61664;48.112;11.662;2023-03-01T02:02:27;5.00;78.00
31379;DHT22;61664;48.112;11.662;2023-03-01T02:05:02;5.00;78.70
31379;DHT22;61664;48.112;11.662;2023-03-01T02:07:38;5.00;77.80
31379;DHT22;61664;48.112;11.662;2023-03-01T02:10:07;5.00;78.40
31379;DHT22;61664;48.112;11.662;2023-03-01T02:12:36;5.00;78.30
31379;DHT22;61664;48.112;11.662;2023-03-01T02:15:04;5.10;78.20
31379;DHT22;61664;48.112;11.662;2023-03-01T02:17:32;5.00;78.30
31379;DHT22;61664;48.112;11.662;2023-03-01T02:22:39;5.00;75.50
31379;DHT22;61664;48.112;11.662;2023-03-01T02:30:48;5.00;75.50
31379;DHT22;61664;48.112;11.662;2023-03-01T02:33:37;4.90;77.10
31379;DHT22;61664;48.112;11.662;2023-03-01T02:36:09;4.90;78.00
31379;DHT22;61664;48.112;11.662;2023-03-01T02:38:41;4.90;77.60
31379;DHT22;61664;48.112;11.662;2023-03-01T02:41:11;5.00;78.20
31379;DHT22;61664;48.112;11.662;2023-03-01T02:43:41;4.90;78.00
31379;DHT22;61664;48.112;11.662;2023-03-01T02:46:15;4.90;78.10
31379;DHT22;61664;48.112;11.662;2023-03-01T02:49:16;4.90;76.80
31379;DHT22;61664;48.112;11.662;2023-03-01T02:52:11;4.90;73.90
31379;DHT22;61664;48.112;11.662;2023-03-01T02:55:09;4.90;74.40
31379;DHT22;61664;48.112;11.662;2023-03-01T02:57:40;4.90;75.30
31379;DHT22;61664;48.112;11.662;2023-03-01T03:00:14;4.90;77.90
31379;DHT22;61664;48.112;11.662;2023-03-01T03:02:50;4.90;77.70
31379;DHT22;61664;48.112;11.662;2023-03-01T03:05:21;4.90;77.60
31379;DHT22;61664;48.112;11.662;2023-03-01T03:07:55;4.80;77.50
31379;DHT22;61664;48.112;11.662;2023-03-01T03:10:26;4.80;77.80
31379;DHT22;61664;48.112;11.662;2023-03-01T03:13:00;4.80;78.10
31379;DHT22;61664;48.112;11.662;2023-03-01T03:15:29;4.80;77.90
31379;DHT22;61664;48.112;11.662;2023-03-01T03:17:58;4.80;77.90
31379;DHT22;61664;48.112;11.662;2023-03-01T03:20:27;4.80;77.80
31379;DHT22;61664;48.112;11.662;2023-03-01T03:22:56;4.70;77.70
31379;DHT22;61664;48.112;11.662;2023-03-01T03:25:26;4.80;77.70
31379;DHT22;61664;48.112;11.662;2023-03-01T03:27:55;4.70;77.60
31379;DHT22;61664;48.112;11.662;2023-03-01T03:30:32;4.70;77.80
31379;DHT22;61664;48.112;11.662;2023-03-01T03:32:59;4.70;75.70
31379;DHT22;61664;48.112;11.662;2023-03-01T03:35:29;4.70;77.80
31379;DHT22;61664;48.112;11.662;2023-03-01T03:38:00;4.70;77.60
31379;DHT22;61664;48.112;11.662;2023-03-01T03:40:33;4.70;77.80
31379;DHT22;61664;48.112;11.662;2023-03-01T03:43:09;4.70;77.80
31379;DHT22;61664;48.112;11.662;2023-03-01T03:45:43;4.70;77.80
31379;DHT22;61664;48.112;11.662;2023-03-01T03:48:10;4.60;77.90
31379;DHT22;61664;48.112;11.662;2023-03-01T03:50:39;4.70;78.00
31379;DHT22;61664;48.112;11.662;2023-03-01T03:53:10;4.60;77.90
31379;DHT22;61664;48.112;11.662;2023-03-01T03:55:38;4.60;77.80
31379;DHT22;61664;48.112;11.662;2023-03-01T03:58:08;4.70;78.10
31379;DHT22;61664;48.112;11.662;2023-03-01T04:00:37;4.60;77.80
31379;DHT22;61664;48.112;11.662;2023-03-01T04:03:06;4.60;73.00
31379;DHT22;61664;48.112;11.662;2023-03-01T04:05:34;4.70;78.10
31379;DHT22;61664;48.112;11.662;2023-03-01T04:08:02;4.60;78.00
31379;DHT22;61664;48.112;11.662;2023-03-01T04:10:32;4.60;78.00
31379;DHT22;61664;48.112;11.662;2023-03-01T04:13:02;4.60;77.60
31379;DHT22;61664;48.112;11.662;2023-03-01T04:15:30;4.60;77.60
31379;DHT22;61664;48.112;11.662;2023-03-01T04:17:59;4.60;77.60
31379;DHT22;61664;48.112;11.662;2023-03-01T04:20:28;4.50;77.50
31379;DHT22;61664;48.112;11.662;2023-03-01T04:22:58;4.50;77.40
31379;DHT22;61664;48.112;11.662;2023-03-01T04:25:35;4.60;77.80
31379;DHT22;61664;48.112;11.662;2023-03-01T04:28:01;4.50;77.80
31379;DHT22;61664;48.112;11.662;2023-03-01T04:30:28;4.50;77.80
31379;DHT22;61664;48.112;11.662;2023-03-01T04:32:55;4.50;78.00
31379;DHT22;61664;48.112;11.662;2023-03-01T04:35:22;4.60;78.10
31379;DHT22;61664;48.112;11.662;2023-03-01T04:37:49;4.50;78.00
31379;DHT22;61664;48.112;11.662;2023-03-01T04:40:16;4.50;77.80
31379;DHT22;61664;48.112;11.662;2023-03-01T04:42:43;4.50;77.70
31379;DHT22;61664;48.112;11.662;2023-03-01T04:45:10;4.50;77.60
31379;DHT22;61664;48.112;11.662;2023-03-01T04:47:41;4.50;77.60
31379;DHT22;61664;48.112;11.662;2023-03-01T04:50:12;4.50;77.50
31379;DHT22;61664;48.112;11.662;2023-03-01T04:52:40;4.50;77.40
31379;DHT22;61664;48.112;11.662;2023-03-01T04:55:08;4.40;77.50
31379;DHT22;61664;48.112;11.662;2023-03-01T04:57:35;4.40;77.30
31379;DHT22;61664;48.112;11.662;2023-03-01T05:00:04;4.40;77.30
31379;DHT22;61664;48.112;11.662;2023-03-01T05:02:57;4.40;77.20
31379;DHT22;61664;48.112;11.662;2023-03-01T05:08:02;4.30;77.10
31379;DHT22;61664;48.112;11.662;2023-03-01T05:10:32;4.30;77.30
31379;DHT22;61664;48.112;11.662;2023-03-01T05:13:03;4.20;77.20
31379;DHT22;61664;48.112;11.662;2023-03-01T05:15:31;4.30;77.30
31379;DHT22;61664;48.112;11.662;2023-03-01T05:17:59;4.20;77.30
31379;DHT22;61664;48.112;11.662;2023-03-01T05:20:30;4.20;77.30
31379;DHT22;61664;48.112;11.662;2023-03-01T05:22:59;4.20;77.20
31379;DHT22;61664;48.112;11.662;2023-03-01T05:25:27;4.20;77.20
31379;DHT22;61664;48.112;11.662;2023-03-01T05:28:02;4.10;77.30
31379;DHT22;61664;48.112;11.662;2023-03-01T05:30:32;4.10;77.00
31379;DHT22;61664;48.112;11.662;2023-03-01T05:33:00;4.10;77.40
31379;DHT22;61664;48.112;11.662;2023-03-01T05:35:28;4.10;77.30
31379;DHT22;61664;48.112;11.662;2023-03-01T05:37:56;4.10;77.40
31379;DHT22;61664;48.112;11.662;2023-03-01T05:40:23;4.00;77.40
31379;DHT22;61664;48.112;11.662;2023-03-01T05:42:55;4.00;77.50
31379;DHT22;61664;48.112;11.662;2023-03-01T05:45:24;4.00;77.10
31379;DHT22;61664;48.112;11.662;2023-03-01T05:47:53;4.00;77.40
31379;DHT22;61664;48.112;11.662;2023-03-01T05:50:26;4.00;77.30
31379;DHT22;61664;48.112;11.662;2023-03-01T05:53:04;4.00;76.60
31379;DHT22;61664;48.112;11.662;2023-03-01T05:55:32;4.00;77.10
31379;DHT22;61664;48.112;11.662;2023-03-01T05:58:03;3.90;77.30
31379;DHT22;61664;48.112;11.662;2023-03-01T06:00:33;3.90;77.30
31379;DHT22;61664;48.112;11.662;2023-03-01T06:03:00;3.90;77.20
31379;DHT22;61664;48.112;11.662;2023-03-01T06:05:28;3.90;77.40
31379;DHT22;61664;48.112;11.662;2023-03-01T06:07:57;3.80;77.50
31379;DHT22;61664;48.112;11.662;2023-03-01T06:10:25;3.80;77.50
31379;DHT22;61664;48.112;11.662;2023-03-01T06:12:53;3.80;77.60
31379;DHT22;61664;48.112;11.662;2023-03-01T06:15:21;3.80;78.10
31379;DHT22;61664;48.112;11.662;2023-03-01T06:17:48;3.80;78.60
31379;DHT22;61664;48.112;11.662;2023-03-01T06:20:17;3.80;78.80
31379;DHT22;61664;48.112;11.662;2023-03-01T06:22:46;3.90;78.60
31379;DHT22;61664;48.112;11.662;2023-03-01T06:25:16;3.90;78.50
31379;DHT22;61664;48.112;11.662;2023-03-01T06:27:45;3.90;78.60
31379;DHT22;61664;48.112;11.662;2023-03-01T06:30:15;3.90;78.80
31379;DHT22;61664;48.112;11.662;2023-03-01T06:32:43;4.00;79.00
31379;DHT22;61664;48.112;11.662;2023-03-01T06:35:11;4.00;78.90
31379;DHT22;61664;48.112;11.662;2023-03-01T06:37:40;4.00;79.10
31379;DHT22;61664;48.112;11.662;2023-03-01T06:40:10;4.10;78.90
31379;DHT22;61664;48.112;11.662;2023-03-01T06:42:39;4.10;78.70
31379;DHT22;61664;48.112;11.662;2023-03-01T06:45:08;4.20;78.60
31379;DHT22;61664;48.112;11.662;2023-03-01T06:47:36;4.10;78.60
31379;DHT22;61664;48.112;11.662;2023-03-01T06:50:03;4.20;78.80
31379;DHT22;61664;48.112;11.662;2023-03-01T06:52:30;4.20;78.90
31379;DHT22;61664;48.112;11.662;2023-03-01T06:54:58;4.20;79.00
31379;DHT22;61664;48.112;11.662;2023-03-01T06:57:25;4.30;79.00
31379;DHT22;61664;48.112;11.662;2023-03-01T06:59:53;4.30;78.60
31379;DHT22;61664;48.112;11.662;2023-03-01T07:02:19;4.30;78.20
31379;DHT22;61664;48.112;11.662;2023-03-01T07:04:49;4.40;78.10
31379;DHT22;61664;48.112;11.662;2023-03-01T07:07:17;4.30;77.50
31379;DHT22;61664;48.112;11.662;2023-03-01T07:09:46;4.40;77.60
31379;DHT22;61664;48.112;11.662;2023-03-01T07:12:14;4.30;77.70
31379;DHT22;61664;48.112;11.662;2023-03-01T07:14:43;4.30;77.90
31379;DHT22;61664;48.112;11.662;2023-03-01T07:17:10;4.30;77.80
31379;DHT22;61664;48.112;11.662;2023-03-01T07:19:37;4.30;78.10
31379;DHT22;61664;48.112;11.662;2023-03-01T07:22:04;4.30;78.10
31379;DHT22;61664;48.112;11.662;2023-03-01T07:24:34;4.30;78.20
31379;DHT22;61664;48.112;11.662;2023-03-01T07:27:01;4.40;78.10
31379;DHT22;61664;48.112;11.662;2023-03-01T07:29:28;4.50;78.10
31379;DHT22;61664;48.112;11.662;2023-03-01T07:31:55;4.40;78.10
31379;DHT22;61664;48.112;11.662;2023-03-01T07:34:22;4.40;78.00
31379;DHT22;61664;48.112;11.662;2023-03-01T07:36:49;4.50;78.10
31379;DHT22;61664;48.112;11.662;2023-03-01T07:39:16;4.50;78.20
31379;DHT22;61664;48.112;11.662;2023-03-01T07:41:45;4.40;78.30
31379;DHT22;61664;48.112;11.662;2023-03-01T07:44:12;4.40;78.20
31379;DHT22;61664;48.112;11.662;2023-03-01T07:46:39;4.50;78.20
31379;DHT22;61664;48.112;11.662;2023-03-01T07:49:06;4.50;78.10
31379;DHT22;61664;48.112;11.662;2023-03-01T07:51:33;4.50;78.20
31379;DHT22;61664;48.112;11.662;2023-03-01T07:54:00;4.50;78.20
31379;DHT22;61664;48.112;11.662;2023-03-01T07:56:26;4.50;78.10
31379;DHT22;61664;48.112;11.662;2023-03-01T07:58:53;4.60;78.20
31379;DHT22;61664;48.112;11.662;2023-03-01T08:01:21;4.60;78.40
31379;DHT22;61664;48.112;11.662;2023-03-01T08:03:48;4.60;78.50
31379;DHT22;61664;48.112;11.662;2023-03-01T08:06:16;4.60;78.60
31379;DHT22;61664;48.112;11.662;2023-03-01T08:08:44;4.60;78.60
31379;DHT22;61664;48.112;11.662;2023-03-01T08:11:14;4.70;79.10
31379;DHT22;61664;48.112;11.662;2023-03-01T08:13:43;4.80;78.40
31379;DHT22;61664;48.112;11.662;2023-03-01T08:16:12;4.80;78.60
31379;DHT22;61664;48.112;11.662;2023-03-01T08:18:42;4.80;78.30
31379;DHT22;61664;48.112;11.662;2023-03-01T08:21:11;4.80;78.30
31379;DHT22;61664;48.112;11.662;2023-03-01T08:23:40;4.90;78.10
31379;DHT22;61664;48.112;11.662;2023-03-01T08:26:28;4.90;78.10
31379;DHT22;61664;48.112;11.662;2023-03-01T08:28:55;4.90;78.30
31379;DHT22;61664;48.112;11.662;2023-03-01T08:31:26;5.00;78.80
31379;DHT22;61664;48.112;11.662;2023-03-01T08:34:00;5.10;78.50
31379;DHT22;61664;48.112;11.662;2023-03-01T08:36:31;5.10;78.50
31379;DHT22;61664;48.112;11.662;2023-03-01T08:39:01;5.10;78.00
31379;DHT22;61664;48.112;11.662;2023-03-01T08:41:29;5.10;78.00
31379;DHT22;61664;48.112;11.662;2023-03-01T08:43:57;5.10;78.20
31379;DHT22;61664;48.112;11.662;2023-03-01T08:46:38;5.20;78.40
31379;DHT22;61664;48.112;11.662;2023-03-01T08:49:10;5.20;75.80
31379;DHT22;61664;48.112;11.662;2023-03-01T08:51:39;5.30;78.50
31379;DHT22;61664;48.112;11.662;2023-03-01T08:54:11;5.30;78.80
31379;DHT22;61664;48.112;11.662;2023-03-01T08:56:41;5.40;77.90
31379;DHT22;61664;48.112;11.662;2023-03-01T08:59:10;5.40;78.60
31379;DHT22;61664;48.112;11.662;2023-03-01T09:01:38;5.50;78.40
31379;DHT22;61664;48.112;11.662;2023-03-01T09:04:06;5.50;78.70
31379;DHT22;61664;48.112;11.662;2023-03-01T09:06:34;5.60;78.60
31379;DHT22;61664;48.112;11.662;2023-03-01T09:09:03;5.60;78.50
31379;DHT22;61664;48.112;11.662;2023-03-01T09:11:31;5.70;78.30
31379;DHT22;61664;48.112;11.662;2023-03-01T09:13:59;5.70;78.20
31379;DHT22;61664;48.112;11.662;2023-03-01T09:16:26;5.80;78.30
31379;DHT22;61664;48.112;11.662;2023-03-01T09:18:54;5.80;78.40
31379;DHT22;61664;48.112;11.662;2023-03-01T09:21:23;5.80;78.40
31379;DHT22;61664;48.112;11.662;2023-03-01T09:24:06;5.90;77.90
31379;DHT22;61664;48.112;11.662;2023-03-01T09:26:40;5.90;77.90
31379;DHT22;61664;48.112;11.662;2023-03-01T09:29:07;6.00;78.40
31379;DHT22;61664;48.112;11.662;2023-03-01T09:31:36;6.00;78.50
31379;DHT22;61664;48.112;11.662;2023-03-01T09:34:03;6.10;78.50
31379;DHT22;61664;48.112;11.662;2023-03-01T09:36:30;6.10;78.50
31379;DHT22;61664;48.112;11.662;2023-03-01T09:38:59;6.20;78.80
31379;DHT22;61664;48.112;11.662;2023-03-01T09:47:02;6.50;73.30
31379;DHT22;61664;48.112;11.662;2023-03-01T09:49:39;6.50;77.50
31379;DHT22;61664;48.112;11.662;2023-03-01T09:54:49;6.60;78.00
31379;DHT22;61664;48.112;11.662;2023-03-01T10:03:32;6.80;76.40
31379;DHT22;61664;48.112;11.662;2023-03-01T10:06:16;6.90;72.60
31379;DHT22;61664;48.112;11.662;2023-03-01T10:11:50;7.00;77.10
31379;DHT22;61664;48.112;11.662;2023-03-01T10:14:34;7.10;74.80
31379;DHT22;61664;48.112;11.662;2023-03-01T10:17:26;7.10;77.40
31379;DHT22;61664;48.112;11.662;2023-03-01T10:19:55;7.10;77.50
31379;DHT22;61664;48.112;11.662;2023-03-01T10:22:37;7.30;77.80
31379;DHT22;61664;48.112;11.662;2023-03-01T10:25:05;7.30;78.10
31379;DHT22;61664;48.112;11.662;2023-03-01T10:27:53;7.30;77.90
31379;DHT22;61664;48.112;11.662;2023-03-01T10:30:36;7.40;77.30
31379;DHT22;61664;48.112;11.662;2023-03-01T10:33:17;7.60;74.60
31379;DHT22;61664;48.112;11.662;2023-03-01T10:35:48;7.70;76.40
31379;DHT22;61664;48.112;11.662;2023-03-01T10:38:16;7.80;79.10
31379;DHT22;61664;48.112;11.662;2023-03-01T10:40:57;8.00;80.20
31379;DHT22;61664;48.112;11.662;2023-03-01T10:43:29;8.40;78.40
31379;DHT22;61664;48.112;11.662;2023-03-01T10:46:29;8.90;84.30
31379;DHT22;61664;48.112;11.662;2023-03-01T10:49:16;9.60;78.20
31379;DHT22;61664;48.112;11.662;2023-03-01T10:51:47;10.40;78.20
31379;DHT22;61664;48.112;11.662;2023-03-01T10:54:20;11.20;81.10
31379;DHT22;61664;48.112;11.662;2023-03-01T10:56:56;11.80;77.20
31379;DHT22;61664;48.112;11.662;2023-03-01T10:59:28;12.00;68.80
31379;DHT22;61664;48.112;11.662;2023-03-01T11:02:09;12.00;69.00
31379;DHT22;61664;48.112;11.662;2023-03-01T11:05:19;11.90;69.30
31379;DHT22;61664;48.112;11.662;2023-03-01T11:07:52;12.00;68.00
31379;DHT22;61664;48.112;11.662;2023-03-01T11:10:33;12.20;74.20
31379;DHT22;61664;48.112;11.662;2023-03-01T11:13:20;12.40;73.50
31379;DHT22;61664;48.112;11.662;2023-03-01T11:16:07;12.70;66.70
31379;DHT22;61664;48.112;11.662;2023-03-01T11:18:38;13.00;66.80
31379;DHT22;61664;48.112;11.662;2023-03-01T11:21:16;13.20;71.50
31379;DHT22;61664;48.112;11.662;2023-03-01T11:23:45;13.30;69.60
31379;DHT22;61664;48.112;11.662;2023-03-01T11:26:15;13.30;67.20
31379;DHT22;61664;48.112;11.662;2023-03-01T11:28:45;13.30;67.00
31379;DHT22;61664;48.112;11.662;2023-03-01T11:31:19;13.20;67.80
31379;DHT22;61664;48.112;11.662;2023-03-01T11:33:59;13.10;68.00
31379;DHT22;61664;48.112;11.662;2023-03-01T11:36:53;12.90;65.10
31379;DHT22;61664;48.112;11.662;2023-03-01T11:39:33;12.60;60.90
31379;DHT22;61664;48.112;11.662;2023-03-01T11:45:11;11.90;66.10
31379;DHT22;61664;48.112;11.662;2023-03-01T11:47:46;11.70;69.50
31379;DHT22;61664;48.112;11.662;2023-03-01T11:53:27;11.30;71.40
31379;DHT22;61664;48.112;11.662;2023-03-01T11:56:14;11.30;67.30
31379;DHT22;61664;48.112;11.662;2023-03-01T12:07:01;10.70;74.30
31379;DHT22;61664;48.112;11.662;2023-03-01T12:10:12;10.60;74.70
31379;DHT22;61664;48.112;11.662;2023-03-01T12:26:31;10.50;68.90
31379;DHT22;61664;48.112;11.662;2023-03-01T12:46:48;10.40;73.10
31379;DHT22;61664;48.112;11.662;2023-03-01T12:49:45;10.40;71.90
31379;DHT22;61664;48.112;11.662;2023-03-01T12:52:26;10.40;71.90
31379;DHT22;61664;48.112;11.662;2023-03-01T12:55:17;10.30;73.00
31379;DHT22;61664;48.112;11.662;2023-03-01T13:00:41;10.20;71.50
31379;DHT22;61664;48.112;11.662;2023-03-01T13:03:38;10.30;76.20
31379;DHT22;61664;48.112;11.662;2023-03-01T13:09:27;10.40;74.50
31379;DHT22;61664;48.112;11.662;2023-03-01T13:18:02;10.50;75.00
31379;DHT22;61664;48.112;11.662;2023-03-01T13:28:39;10.60;76.50
31379;DHT22;61664;48.112;11.662;2023-03-01T13:33:49;10.70;76.60
31379;DHT22;61664;48.112;11.662;2023-03-01T13:38:59;10.70;72.40
31379;DHT22;61664;48.112;11.662;2023-03-01T13:47:03;10.90;73.10
31379;DHT22;61664;48.112;11.662;2023-03-01T13:52:39;11.00;72.00
31379;DHT22;61664;48.112;11.662;2023-03-01T13:57:43;11.00;76.00
31379;DHT22;61664;48.112;11.662;2023-03-01T14:00:35;11.00;76.90
31379;DHT22;61664;48.112;11.662;2023-03-01T14:03:12;11.00;70.80
31379;DHT22;61664;48.112;11.662;2023-03-01T14:05:42;11.10;74.20
31379;DHT22;61664;48.112;11.662;2023-03-01T14:08:40;11.10;77.90
31379;DHT22;61664;48.112;11.662;2023-03-01T14:11:24;11.30;72.10
31379;DHT22;61664;48.112;11.662;2023-03-01T14:14:27;11.30;79.20
31379;DHT22;61664;48.112;11.662;2023-03-01T14:19:55;11.30;78.80
31379;DHT22;61664;48.112;11.662;2023-03-01T14:22:28;11.40;75.40
31379;DHT22;61664;48.112;11.662;2023-03-01T14:25:02;11.50;79.20
31379;DHT22;61664;48.112;11.662;2023-03-01T14:27:43;11.60;79.70
31379;DHT22;61664;48.112;11.662;2023-03-01T14:30:26;11.70;81.00
31379;DHT22;61664;48.112;11.662;2023-03-01T14:33:00;11.80;73.60
31379;DHT22;61664;48.112;11.662;2023-03-01T14:35:35;12.00;82.50
31379;DHT22;61664;48.112;11.662;2023-03-01T14:38:03;12.20;81.60
31379;DHT22;61664;48.112;11.662;2023-03-01T14:40:33;12.50;86.40
31379;DHT22;61664;48.112;11.662;2023-03-01T14:43:09;12.80;85.70
31379;DHT22;61664;48.112;11.662;2023-03-01T14:45:38;13.20;82.40
31379;DHT22;61664;48.112;11.662;2023-03-01T14:48:06;13.60;85.30
31379;DHT22;61664;48.112;11.662;2023-03-01T14:50:35;13.90;83.10
31379;DHT22;61664;48.112;11.662;2023-03-01T14:53:16;14.20;80.40
31379;DHT22;61664;48.112;11.662;2023-03-01T14:55:56;14.30;73.40
31379;DHT22;61664;48.112;11.662;2023-03-01T14:58:31;14.50;76.80
31379;DHT22;61664;48.112;11.662;2023-03-01T15:01:01;14.50;76.20
31379;DHT22;61664;48.112;11.662;2023-03-01T15:03:38;14.50;75.10
31379;DHT22;61664;48.112;11.662;2023-03-01T15:06:11;14.40;72.60
31379;DHT22;61664;48.112;11.662;2023-03-01T15:08:42;14.40;76.10
31379;DHT22;61664;48.112;11.662;2023-03-01T15:11:22;14.40;70.60
31379;DHT22;61664;48.112;11.662;2023-03-01T15:13:57;14.40;75.70
31379;DHT22;61664;48.112;11.662;2023-03-01T15:16:33;14.50;81.60
31379;DHT22;61664;48.112;11.662;2023-03-01T15:19:05;14.70;75.90
31379;DHT22;61664;48.112;11.662;2023-03-01T15:21:35;14.90;81.60
31379;DHT22;61664;48.112;11.662;2023-03-01T15:24:07;15.20;83.40
31379;DHT22;61664;48.112;11.662;2023-03-01T15:27:00;15.50;74.80
31379;DHT22;61664;48.112;11.662;2023-03-01T15:29:34;15.80;76.90
31379;DHT22;61664;48.112;11.662;2023-03-01T15:32:28;16.10;82.60
31379;DHT22;61664;48.112;11.662;2023-03-01T15:44:14;17.10;67.10
31379;DHT22;61664;48.112;11.662;2023-03-01T15:46:56;17.00;72.60
31379;DHT22;61664;48.112;11.662;2023-03-01T15:49:37;16.90;72.90
31379;DHT22;61664;48.112;11.662;2023-03-01T15:52:35;16.80;65.10
31379;DHT22;61664;48.112;11.662;2023-03-01T15:55:21;16.70;69.80
31379;DHT22;61664;48.112;11.662;2023-03-01T15:57:50;16.60;69.00
31379;DHT22;61664;48.112;11.662;2023-03-01T16:00:27;16.70;73.40
31379;DHT22;61664;48.112;11.662;2023-03-01T16:02:55;16.50;73.40
31379;DHT22;61664;48.112;11.662;2023-03-01T16:05:33;16.40;71.10
31379;DHT22;61664;48.112;11.662;2023-03-01T16:08:01;16.20;63.90
31379;DHT22;61664;48.112;11.662;2023-03-01T16:10:30;15.90;67.80
31379;DHT22;61664;48.112;11.662;2023-03-01T16:12:58;15.60;67.20
31379;DHT22;61664;48.112;11.662;2023-03-01T16:15:26;15.20;67.10
31379;DHT22;61664;48.112;11.662;2023-03-01T16:17:58;14.80;67.50
31379;DHT22;61664;48.112;11.662;2023-03-01T16:20:26;14.40;67.60
31379;DHT22;61664;48.112;11.662;2023-03-01T16:23:04;14.10;68.10
31379;DHT22;61664;48.112;11.662;2023-03-01T16:25:34;13.70;66.30
31379;DHT22;61664;48.112;11.662;2023-03-01T16:28:02;13.40;68.60
31379;DHT22;61664;48.112;11.662;2023-03-01T16:30:38;13.00;69.10
31379;DHT22;61664;48.112;11.662;2023-03-01T16:33:06;12.70;69.80
31379;DHT22;61664;48.112;11.662;2023-03-01T16:35:55;12.50;70.40
31379;DHT22;61664;48.112;11.662;2023-03-01T16:38:22;12.20;70.80
31379;DHT22;61664;48.112;11.662;2023-03-01T16:40:51;12.00;71.30
31379;DHT22;61664;48.112;11.662;2023-03-01T16:43:19;11.70;71.10
31379;DHT22;61664;48.112;11.662;2023-03-01T16:45:46;11.50;71.90
31379;DHT22;61664;48.112;11.662;2023-03-01T16:48:14;11.40;72.30
31379;DHT22;61664;48.112;11.662;2023-03-01T16:50:41;11.20;72.40
31379;DHT22;61664;48.112;11.662;2023-03-01T16:53:08;11.00;72.50
31379;DHT22;61664;48.112;11.662;2023-03-01T16:55:35;10.90;72.60
31379;DHT22;61664;48.112;11.662;2023-03-01T16:58:02;10.80;72.70
31379;DHT22;61664;48.112;11.662;2023-03-01T17:00:31;10.60;72.60
31379;DHT22;61664;48.112;11.662;2023-03-01T17:02:57;10.40;72.30
31379;DHT22;61664;48.112;11.662;2023-03-01T17:06:02;10.20;72.10
31379;DHT22;61664;48.112;11.662;2023-03-01T17:09:00;10.00;68.50
31379;DHT22;61664;48.112;11.662;2023-03-01T17:11:27;9.80;72.10
31379;DHT22;61664;48.112;11.662;2023-03-01T17:13:54;9.60;72.10
31379;DHT22;61664;48.112;11.662;2023-03-01T17:16:21;9.40;72.30
31379;DHT22;61664;48.112;11.662;2023-03-01T17:18:49;9.20;72.40
31379;DHT22;61664;48.112;11.662;2023-03-01T17:21:16;9.00;72.40
31379;DHT22;61664;48.112;11.662;2023-03-01T17:23:44;8.90;72.80
31379;DHT22;61664;48.112;11.662;2023-03-01T17:26:12;8.70;72.60
31379;DHT22;61664;48.112;11.662;2023-03-01T17:28:39;8.60;73.10
31379;DHT22;61664;48.112;11.662;2023-03-01T17:31:07;8.40;73.30
31379;DHT22;61664;48.112;11.662;2023-03-01T17:33:34;8.30;73.50
31379;DHT22;61664;48.112;11.662;2023-03-01T17:36:01;8.20;73.70
31379;DHT22;61664;48.112;11.662;2023-03-01T17:38:29;8.10;73.90
31379;DHT22;61664;48.112;11.662;2023-03-01T17:40:58;8.00;74.20
31379;DHT22;61664;48.112;11.662;2023-03-01T17:43:26;8.00;74.00
31379;DHT22;61664;48.112;11.662;2023-03-01T17:46:30;7.80;74.60
31379;DHT22;61664;48.112;11.662;2023-03-01T17:48:57;7.70;74.50
31379;DHT22;61664;48.112;11.662;2023-03-01T17:51:24;7.60;75.20
31379;DHT22;61664;48.112;11.662;2023-03-01T17:53:51;7.50;74.80
31379;DHT22;61664;48.112;11.662;2023-03-01T17:56:18;7.40;75.00
31379;DHT22;61664;48.112;11.662;2023-03-01T17:58:45;7.40;75.20
31379;DHT22;61664;48.112;11.662;2023-03-01T18:01:17;7.30;75.10
31379;DHT22;61664;48.112;11.662;2023-03-01T18:03:45;7.30;74.20
31379;DHT22;61664;48.112;11.662;2023-03-01T18:06:18;7.20;75.40